Wind From: 11-12-2017 10:04 Until: 12-12-2017 06:00 warning for: Wind Level: Orange info button

Power and phone distribution networks may be disrupted for relatively long periods., Roofs and chimneys can be damaged. , Tree branches may break. , Vehicles can be deported. , Traffic may be disrupted, particularly on secondary roads in forest areas. Limit your trips. , Limit your speed in highway driving, especially if you drive a vehicle or hitch sensitive to wind. , Do not go for walks in forests or along the coast., In town, be vigilant against possible falling objects., Do not work on roofs and do not touch any electrical line fallen on the ground., Store or secure sensitive objects to wind or likely to be damaged., Always install power generators outside buildings. 


Meteo18 Weather Cam more information Meteo18 Weather Cam


Thunder radar more information blitzortung!


Rain radar more information rain snow radar


Visit our other weather sites:

Template documentation
and downloads

And another site



Weather Underground History page Text

Daily Summary for December 7, 2017 Units:  English    Metric   Both
« Previous Day
Next Day »
Daily Weekly Monthly Yearly Custom
  High: Low: Average:
Temperature: 44.4 °F 28 °F 35.6 °F
Dew Point: 43.7 °F 27.3 °F 34.2 °F
Humidity: 98 % 86 % 95 %
Wind Speed: 17 mph 0 mph 5.8 mph
Wind Gust: 23 mph - -
Wind:- - SSW
Pressure: 30.4 in 30 in -
Precipitation: 0.31 in    
Historical Graphs
 
 
Tabular Data for December 7, 2017
Time Temperature Dew Point Pressure Wind Wind Speed Wind Gust Humidity Rainfall Rate (Hourly)
00:02 33.6 °F 32.5 °F 30.4 in SSE 1 mph 5 mph 96 % 0 in
00:07 33.6 °F 32.4 °F 30.4 in SSE 1 mph 5 mph 95 % 0 in
00:12 33.6 °F 32.4 °F 30.4 in SSE 1 mph 6 mph 95 % 0 in
00:17 33.6 °F 32.5 °F 30.4 in Calm   6 mph 96 % 0 in
00:22 33.4 °F 32.4 °F 30.4 in SE 1 mph 7 mph 96 % 0 in
00:27 33.4 °F 32.4 °F 30.4 in Calm   7 mph 96 % 0 in
00:32 33.4 °F 32.4 °F 30.4 in SSE 1 mph 4 mph 96 % 0 in
00:42 33.4 °F 32.4 °F 30.4 in SSE 2 mph 4 mph 96 % 0 in
00:47 33.4 °F 32.4 °F 30.4 in Calm   5 mph 96 % 0 in
00:52 33.4 °F 32.4 °F 30.4 in South 4 mph 5 mph 96 % 0 in
00:57 33.4 °F 32.4 °F 30.4 in SSW 1 mph 5 mph 96 % 0 in
01:02 33.3 °F 32.2 °F 30.4 in SSW 2 mph 4 mph 96 % 0 in
01:07 33.3 °F 32.2 °F 30.4 in SSW 2 mph 4 mph 96 % 0 in
01:12 33.1 °F 32 °F 30.4 in SSE 3 mph 4 mph 96 % 0 in
01:17 32.9 °F 31.8 °F 30.4 in SSW 2 mph 4 mph 96 % 0 in
01:22 32.9 °F 31.8 °F 30.4 in South 2 mph 4 mph 96 % 0 in
01:27 32.7 °F 31.6 °F 30.4 in South 2 mph 4 mph 96 % 0 in
01:37 32.7 °F 31.6 °F 30.4 in SSW 3 mph 6 mph 96 % 0 in
01:42 32.7 °F 31.6 °F 30.4 in SSE 1 mph 5 mph 96 % 0 in
01:47 32.5 °F 31.5 °F 30.4 in SSE 5 mph 5 mph 96 % 0 in
01:52 32.5 °F 31.5 °F 30.4 in South 4 mph 6 mph 96 % 0 in
02:02 32.4 °F 31.3 °F 30.4 in South 4 mph 6 mph 96 % 0 in
02:12 32 °F 30.9 °F 30.4 in SSE 1 mph 6 mph 96 % 0 in
02:17 32 °F 30.9 °F 30.4 in SE 2 mph 6 mph 96 % 0 in
02:22 31.8 °F 30.7 °F 30.4 in SSE 3 mph 6 mph 96 % 0 in
02:27 31.8 °F 30.7 °F 30.4 in SSE 2 mph 5 mph 96 % 0 in
02:32 31.8 °F 30.7 °F 30.4 in SSE 1 mph 4 mph 96 % 0 in
02:37 31.8 °F 30.7 °F 30.4 in South 1 mph 4 mph 96 % 0 in
02:42 31.8 °F 30.7 °F 30.4 in Calm   4 mph 96 % 0 in
02:47 31.8 °F 30.7 °F 30.4 in SSE 1 mph 4 mph 96 % 0 in
02:52 31.6 °F 30.6 °F 30.4 in SSE 2 mph 4 mph 96 % 0 in
02:57 31.5 °F 30.4 °F 30.4 in SSW 2 mph 5 mph 96 % 0 in
03:02 31.5 °F 30.4 °F 30.4 in South 1 mph 5 mph 96 % 0 in
03:07 31.5 °F 30.4 °F 30.4 in Calm   5 mph 96 % 0 in
03:12 31.5 °F 30.4 °F 30.4 in SSE 1 mph 4 mph 96 % 0 in
03:17 31.3 °F 30.2 °F 30.4 in Calm   3 mph 96 % 0 in
03:22 31.3 °F 30.2 °F 30.4 in SSW 3 mph 3 mph 96 % 0 in
03:27 30.9 °F 29.8 °F 30.4 in SW 2 mph 5 mph 96 % 0 in
03:32 30.7 °F 29.7 °F 30.4 in SSW 1 mph 5 mph 96 % 0 in
03:42 30.4 °F 29.3 °F 30.4 in SSE 1 mph 5 mph 96 % 0 in
03:47 30.2 °F 29.1 °F 30.4 in SSE 1 mph 5 mph 96 % 0 in
03:57 30 °F 29.3 °F 30.4 in Calm   5 mph 97 % 0 in
04:02 30 °F 29.3 °F 30.4 in Calm   5 mph 97 % 0 in
04:07 30 °F 29.3 °F 30.4 in SSE 2 mph 4 mph 97 % 0 in
04:17 30.2 °F 29.5 °F 30.4 in SSW 2 mph 2 mph 97 % 0 in
04:22 30.2 °F 29.5 °F 30.4 in SSW 2 mph 3 mph 97 % 0 in
04:27 30 °F 29.3 °F 30.4 in SE 3 mph 3 mph 97 % 0 in
04:32 29.8 °F 29.1 °F 30.4 in Calm   4 mph 97 % 0 in
04:37 29.8 °F 29.1 °F 30.4 in SSE 1 mph 6 mph 97 % 0 in
04:47 29.8 °F 29.1 °F 30.4 in Calm   6 mph 97 % 0 in
04:52 29.8 °F 29.1 °F 30.4 in SW 3 mph 4 mph 97 % 0 in
05:02 29.8 °F 29.1 °F 30.4 in SSW 3 mph 5 mph 97 % 0 in
05:07 29.8 °F 29.1 °F 30.4 in SSW 2 mph 5 mph 97 % 0 in
05:12 29.8 °F 29.1 °F 30.4 in SW 3 mph 5 mph 97 % 0 in
05:17 29.8 °F 29.1 °F 30.4 in South 5 mph 9 mph 97 % 0 in
05:22 29.8 °F 29.1 °F 30.4 in SW 5 mph 9 mph 97 % 0 in
05:32 29.7 °F 28.9 °F 30.3 in SSW 4 mph 7 mph 97 % 0 in
05:37 29.5 °F 28.8 °F 30.3 in SSE 6 mph 10 mph 97 % 0 in
05:42 29.5 °F 28.8 °F 30.3 in SW 6 mph 10 mph 97 % 0 in
05:47 29.1 °F 28.4 °F 30.3 in SSW 3 mph 11 mph 97 % 0 in
05:52 29.1 °F 28.4 °F 30.3 in SSW 4 mph 11 mph 97 % 0 in
05:57 29.1 °F 28.4 °F 30.3 in SSW 2 mph 11 mph 97 % 0 in
06:02 28.9 °F 28.2 °F 30.3 in SW 4 mph 10 mph 97 % 0 in
06:07 28.8 °F 28 °F 30.3 in SW 8 mph 12 mph 97 % 0 in
06:12 28.6 °F 27.9 °F 30.3 in SW 5 mph 12 mph 97 % 0 in
06:17 28.6 °F 27.9 °F 30.3 in SW 9 mph 12 mph 97 % 0 in
06:22 28.6 °F 27.9 °F 30.3 in SW 9 mph 12 mph 97 % 0 in
06:32 28.6 °F 27.9 °F 30.3 in SSW 11 mph 12 mph 97 % 0 in
06:37 28.6 °F 27.9 °F 30.3 in SSW 7 mph 11 mph 97 % 0 in
06:42 28.4 °F 27.7 °F 30.3 in SW 7 mph 13 mph 97 % 0 in
06:47 28.2 °F 27.5 °F 30.3 in SW 4 mph 13 mph 97 % 0 in
06:52 28.4 °F 27.7 °F 30.3 in WSW 6 mph 13 mph 97 % 0 in
07:02 28.6 °F 27.9 °F 30.3 in SSW 4 mph 9 mph 97 % 0 in
07:07 28.6 °F 27.9 °F 30.3 in SW 10 mph 10 mph 97 % 0 in
07:12 28.2 °F 27.5 °F 30.3 in SW 6 mph 11 mph 97 % 0 in
07:17 28.2 °F 27.5 °F 30.3 in SW 8 mph 11 mph 97 % 0 in
07:22 28.2 °F 27.5 °F 30.3 in WSW 3 mph 11 mph 97 % 0 in
07:27 28.2 °F 27.5 °F 30.3 in SSW 6 mph 9 mph 97 % 0 in
07:32 28.2 °F 27.5 °F 30.3 in SW 6 mph 9 mph 97 % 0 in
07:42 28.2 °F 27.5 °F 30.3 in SW 4 mph 9 mph 97 % 0 in
07:47 28.4 °F 27.7 °F 30.3 in SW 3 mph 8 mph 97 % 0 in
07:52 28.6 °F 27.9 °F 30.3 in SSW 5 mph 7 mph 97 % 0 in
07:57 28.6 °F 27.9 °F 30.3 in SSW 2 mph 9 mph 97 % 0 in
08:02 28.6 °F 27.9 °F 30.3 in SSE 4 mph 9 mph 97 % 0 in
08:12 28.6 °F 27.9 °F 30.3 in SSW 4 mph 9 mph 97 % 0 in
08:22 28.4 °F 27.7 °F 30.3 in SW 8 mph 10 mph 97 % 0 in
08:27 28.4 °F 27.7 °F 30.3 in WSW 4 mph 11 mph 97 % 0 in
08:32 28.2 °F 27.5 °F 30.3 in South 5 mph 11 mph 97 % 0 in
08:42 28 °F 27.3 °F 30.3 in South 3 mph 10 mph 97 % 0 in
08:52 28 °F 27.3 °F 30.3 in SSW 1 mph 8 mph 97 % 0 in
08:57 28 °F 27.3 °F 30.3 in SSW 4 mph 5 mph 97 % 0 in
09:02 28.2 °F 27.5 °F 30.3 in SSW 5 mph 9 mph 97 % 0 in
09:07 28.4 °F 27.7 °F 30.3 in SSW 4 mph 9 mph 97 % 0 in
09:12 28.6 °F 27.9 °F 30.3 in SSW 4 mph 9 mph 97 % 0 in
09:17 28.4 °F 27.7 °F 30.3 in SSW 4 mph 9 mph 97 % 0 in
09:22 28.4 °F 27.7 °F 30.3 in SW 5 mph 8 mph 97 % 0 in
09:27 28.6 °F 27.9 °F 30.3 in SSW 6 mph 8 mph 97 % 0 in
09:32 28.6 °F 27.9 °F 30.3 in SW 5 mph 8 mph 97 % 0 in
09:42 28.6 °F 27.9 °F 30.3 in South 5 mph 10 mph 97 % 0 in
09:47 28.6 °F 27.9 °F 30.3 in SSW 4 mph 10 mph 97 % 0 in
09:52 28.8 °F 28 °F 30.3 in SW 4 mph 8 mph 97 % 0 in
09:57 28.9 °F 28.2 °F 30.3 in SSW 6 mph 8 mph 97 % 0 in
10:02 28.9 °F 28.2 °F 30.3 in SSW 6 mph 9 mph 97 % 0 in
10:12 29.1 °F 28.4 °F 30.3 in SW 5 mph 9 mph 97 % 0 in
10:17 28.9 °F 28.2 °F 30.3 in SSW 2 mph 8 mph 97 % 0 in
10:22 29.3 °F 28.6 °F 30.3 in SW 6 mph 9 mph 97 % 0 in
10:27 29.3 °F 28.6 °F 30.3 in South 6 mph 9 mph 97 % 0 in
10:32 29.3 °F 28.6 °F 30.3 in SSW 5 mph 9 mph 97 % 0 in
10:37 29.5 °F 28.8 °F 30.3 in SSW 3 mph 10 mph 97 % 0 in
10:42 29.5 °F 28.8 °F 30.3 in SSE 1 mph 10 mph 97 % 0 in
10:47 29.5 °F 28.8 °F 30.3 in SSW 8 mph 10 mph 97 % 0 in
10:52 29.7 °F 28.9 °F 30.3 in SSW 4 mph 9 mph 97 % 0 in
10:57 29.8 °F 29.1 °F 30.3 in SSW 5 mph 9 mph 97 % 0 in
11:02 30 °F 29.3 °F 30.3 in SW 8 mph 9 mph 97 % 0 in
11:12 30.7 °F 30 °F 30.3 in SSW 4 mph 9 mph 97 % 0 in
11:17 31.1 °F 30.4 °F 30.3 in South 2 mph 9 mph 97 % 0 in
11:22 31.6 °F 31.1 °F 30.3 in South 1 mph 9 mph 98 % 0 in
11:32 32.2 °F 31.6 °F 30.3 in South 1 mph 9 mph 98 % 0 in
11:42 32.7 °F 32.2 °F 30.3 in SSW 6 mph 9 mph 98 % 0 in
11:47 32.9 °F 32.4 °F 30.3 in South 3 mph 9 mph 98 % 0 in
11:52 33.1 °F 32.5 °F 30.3 in SSW 3 mph 9 mph 98 % 0 in
12:02 33.6 °F 33.1 °F 30.3 in SSW 2 mph 9 mph 98 % 0 in
12:07 34.2 °F 33.6 °F 30.3 in SSW 6 mph 10 mph 98 % 0 in
12:12 34.5 °F 34 °F 30.3 in SW 8 mph 10 mph 98 % 0 in
12:17 35.1 °F 34.5 °F 30.3 in SSW 5 mph 10 mph 98 % 0 in
12:22 35.4 °F 34.9 °F 30.3 in SW 8 mph 11 mph 98 % 0 in
12:27 35.8 °F 35.2 °F 30.3 in SW 6 mph 13 mph 98 % 0 in
12:37 36.3 °F 35.8 °F 30.3 in SW 11 mph 13 mph 98 % 0 in
12:42 36.7 °F 36.1 °F 30.3 in SSW 12 mph 15 mph 98 % 0 in
12:47 37 °F 36.5 °F 30.3 in SSW 10 mph 16 mph 98 % 0 in
12:52 37.2 °F 36.7 °F 30.3 in SSW 8 mph 16 mph 98 % 0 in
12:57 37.6 °F 37 °F 30.3 in SSW 11 mph 14 mph 98 % 0 in
13:02 37.9 °F 37.4 °F 30.3 in WSW 10 mph 14 mph 98 % 0 in
13:07 38.5 °F 37.9 °F 30.2 in SSW 6 mph 13 mph 98 % 0 in
13:12 39 °F 38.3 °F 30.2 in SSW 6 mph 15 mph 97 % 0 in
13:17 39.6 °F 38.8 °F 30.2 in SW 10 mph 15 mph 97 % 0 in
13:22 39.7 °F 38.5 °F 30.2 in SSW 9 mph 15 mph 95 % 0 in
13:27 39.9 °F 38.3 °F 30.2 in SSW 9 mph 14 mph 94 % 0 in
13:32 40.1 °F 38.3 °F 30.2 in SSW 9 mph 18 mph 93 % 0 in
13:37 40.3 °F 38.1 °F 30.2 in SW 9 mph 18 mph 92 % 0 in
13:42 40.5 °F 38.3 °F 30.2 in SSW 6 mph 16 mph 92 % 0 in
13:52 40.8 °F 38.7 °F 30.2 in South 3 mph 15 mph 92 % 0 in
13:57 41.2 °F 39 °F 30.2 in SSW 6 mph 12 mph 92 % 0 in
14:07 41.5 °F 39.2 °F 30.2 in South 5 mph 13 mph 91 % 0 in
14:17 41.9 °F 39.2 °F 30.2 in SSW 8 mph 14 mph 90 % 0 in
14:22 41.9 °F 39.2 °F 30.2 in SSW 9 mph 14 mph 90 % 0 in
14:32 42.3 °F 39.2 °F 30.2 in SW 12 mph 14 mph 89 % 0 in
14:37 42.4 °F 39.4 °F 30.2 in SW 14 mph 14 mph 89 % 0 in
14:42 42.4 °F 39.4 °F 30.2 in SSW 7 mph 17 mph 89 % 0 in
14:47 42.6 °F 39.6 °F 30.2 in SSW 8 mph 17 mph 89 % 0 in
14:57 43 °F 39.9 °F 30.2 in South 6 mph 16 mph 89 % 0 in
15:02 43.2 °F 40.1 °F 30.2 in South 8 mph 14 mph 89 % 0 in
15:12 43.3 °F 40.1 °F 30.2 in South 8 mph 11 mph 88 % 0 in
15:22 43.5 °F 40.3 °F 30.2 in South 5 mph 13 mph 88 % 0 in
15:27 43.5 °F 40.3 °F 30.2 in SSW 8 mph 13 mph 88 % 0 in
15:32 43.5 °F 40.3 °F 30.2 in SSW 7 mph 13 mph 88 % 0 in
15:52 43.9 °F 40.3 °F 30.2 in SSW 5 mph 14 mph 87 % 0 in
15:57 43.9 °F 40.3 °F 30.2 in SSW 11 mph 14 mph 87 % 0 in
16:02 44.1 °F 40.5 °F 30.1 in SW 5 mph 14 mph 87 % 0 in
16:12 44.1 °F 40.5 °F 30.1 in SW 5 mph 11 mph 87 % 0 in
16:37 44.1 °F 40.5 °F 30.1 in SSW 5 mph 9 mph 87 % 0 in
16:42 44.1 °F 40.5 °F 30.1 in SSW 6 mph 9 mph 87 % 0 in
16:47 44.1 °F 40.5 °F 30.1 in SSW 8 mph 9 mph 87 % 0 in
16:57 44.2 °F 40.3 °F 30.1 in SSW 8 mph 9 mph 86 % 0 in
17:07 44.2 °F 40.3 °F 30.1 in SSW 6 mph 10 mph 86 % 0 in
17:12 44.2 °F 40.3 °F 30.1 in SSW 8 mph 10 mph 86 % 0 in
17:22 44.2 °F 40.3 °F 30.1 in SSW 5 mph 11 mph 86 % 0 in
17:27 44.2 °F 40.6 °F 30.1 in SW 8 mph 11 mph 87 % 0 in
17:32 44.2 °F 40.3 °F 30.1 in SSW 6 mph 11 mph 86 % 0 in
17:47 44.2 °F 40.3 °F 30.1 in SW 9 mph 12 mph 86 % 0 in
17:52 44.2 °F 40.6 °F 30.1 in SSW 7 mph 12 mph 87 % 0 in
17:57 44.1 °F 40.5 °F 30.1 in SSW 7 mph 12 mph 87 % 0 in
18:02 43.9 °F 40.6 °F 30.1 in SW 6 mph 11 mph 88 % 0.01 in
18:12 43.5 °F 40.5 °F 30.1 in SW 6 mph 12 mph 89 % 0.02 in
18:17 43.5 °F 40.8 °F 30.1 in SW 5 mph 12 mph 90 % 0.02 in
18:22 43.5 °F 40.8 °F 30.1 in SSW 7 mph 12 mph 90 % 0.02 in
18:32 43.9 °F 40.8 °F 30.1 in SSW 7 mph 12 mph 89 % 0.03 in
18:42 43.5 °F 40.8 °F 30.1 in SSW 4 mph 10 mph 90 % 0.04 in
18:57 43.5 °F 40.8 °F 30.1 in SW 10 mph 12 mph 90 % 0.06 in
19:02 43.5 °F 40.8 °F 30.1 in SSW 9 mph 13 mph 90 % 0.05 in
19:12 43.7 °F 40.6 °F 30.1 in SSW 9 mph 15 mph 89 % 0.06 in
19:17 43.7 °F 40.6 °F 30.1 in SW 11 mph 15 mph 89 % 0.06 in
19:22 43.7 °F 40.6 °F 30.1 in SSW 13 mph 17 mph 89 % 0.06 in
19:27 43.9 °F 40.8 °F 30.1 in SSW 8 mph 18 mph 89 % 0.07 in
19:52 43.7 °F 41 °F 30.1 in SW 17 mph 22 mph 90 % 0.08 in
19:57 43.5 °F 41 °F 30.1 in SW 12 mph 23 mph 91 % 0.08 in
20:02 43.5 °F 41.4 °F 30.1 in SW 12 mph 23 mph 92 % 0.08 in
20:07 43.3 °F 41.5 °F 30.1 in WSW 15 mph 23 mph 93 % 0.07 in
20:12 43.3 °F 41.5 °F 30.1 in SW 14 mph 21 mph 93 % 0.09 in
20:17 43.3 °F 41.5 °F 30.1 in SW 16 mph 23 mph 93 % 0.09 in
20:22 43.2 °F 41.4 °F 30.1 in SSW 12 mph 23 mph 93 % 0.09 in
20:27 43.2 °F 41.5 °F 30.1 in SW 11 mph 20 mph 94 % 0.09 in
20:32 43 °F 41.4 °F 30.1 in SW 11 mph 20 mph 94 % 0.09 in
20:42 43 °F 41.7 °F 30.1 in SSW 15 mph 20 mph 95 % 0.09 in
21:02 43 °F 41.9 °F 30.1 in SW 12 mph 22 mph 96 % 0.08 in
21:17 43.2 °F 42.1 °F 30.1 in WSW 15 mph 21 mph 96 % 0.07 in
21:22 43.2 °F 42.1 °F 30.1 in SW 11 mph 21 mph 96 % 0.06 in
21:37 43.2 °F 42.1 °F 30.1 in SW 14 mph 20 mph 96 % 0.06 in
21:47 43.2 °F 42.1 °F 30.1 in SW 11 mph 20 mph 96 % 0.07 in
21:52 43.2 °F 42.1 °F 30 in SW 12 mph 18 mph 96 % 0.06 in
22:07 43.3 °F 42.6 °F 30 in SW 11 mph 19 mph 97 % 0.05 in
22:12 43.3 °F 42.6 °F 30 in WSW 17 mph 20 mph 97 % 0.05 in
22:17 43.3 °F 42.6 °F 30 in WSW 11 mph 20 mph 97 % 0.04 in
22:22 43.3 °F 42.6 °F 30 in SW 8 mph 20 mph 97 % 0.03 in
22:37 43.3 °F 42.6 °F 30 in SW 12 mph 19 mph 97 % 0.02 in
22:42 43.3 °F 42.6 °F 30 in WSW 13 mph 19 mph 97 % 0.02 in
22:47 43.3 °F 42.6 °F 30 in WSW 12 mph 19 mph 97 % 0.01 in
22:57 43.5 °F 42.8 °F 30 in SW 10 mph 19 mph 97 % 0.01 in
23:02 43.7 °F 43 °F 30 in SW 13 mph 19 mph 97 % 0.02 in
23:07 43.7 °F 43 °F 30 in SW 14 mph 19 mph 97 % 0.02 in
23:12 43.7 °F 43 °F 30 in SW 9 mph 17 mph 97 % 0.02 in
23:17 43.7 °F 43 °F 30 in SW 9 mph 18 mph 97 % 0.02 in
23:22 43.9 °F 43.2 °F 30 in WSW 12 mph 18 mph 97 % 0.02 in
23:32 43.9 °F 43.2 °F 30 in SW 4 mph 15 mph 97 % 0.02 in
23:37 44.1 °F 43.3 °F 30 in WSW 9 mph 14 mph 97 % 0.01 in
23:42 44.1 °F 43.3 °F 30 in West 4 mph 13 mph 97 % 0.01 in
23:47 44.2 °F 43.5 °F 30 in SW 3 mph 12 mph 97 % 0.02 in
23:57 44.4 °F 43.7 °F 30 in WSW 6 mph 10 mph 97 % 0.02 in
Meteo18
Compliments of Weather Underground - 4 mb

Script developed by  Jim McMurry - jmcmurry@mwt.net Adapted for the template by  Wim van der Kuil - Leuven-Template.eu

You find our weather info also at:

European Weather Network

Weather Underground

Equipment we use:

Weather-station
Davis Vue

Weather-program
Meteohub

Weather-server
Raspberry PI 2 B+

Provider
1 and 1

Davis Vue

Meteohub

Raspberry PI 2 B+

1 and 1